モンテレー の空港の天気 - METARとTAF

ヘネラル・マリアノ・エソコベド国際空港 ( MMMY / MTY ) - メキシコ ヌエボ・レオン州モンテレー
飛行場実況気象(Metar)
観測時間12/09 22:40 CST (12/10 04:40 UTC)
風向・風速北東 2m/s
視程9650m
天気現象
なし
気温-
湿度-
気圧1028hPa
METARMMMY 100440Z 04004KT 6SM SKC 09/// A3037 RMK HZY
過去の天気等 Google飛行場航空写真 Wunderground天気予報

過去48時間のMETAR

飛行場予報(TAF)
発表時間: 12/09 20:51 CST (12/10 02:51 UTC)
予報対象時間: 9日21時 CST ~ 11日0時 CST
風向・風速東北東 3m/s
視程10km以上
天気現象煙霧
全天の8割程度の雲 雲底高度 550m
全天を覆う雲 雲底高度 760m
9日23時 CST ~ 9日24時 CST に徐々に
視程4830m
天気現象もや 煙霧
10日4時 CST ~ 10日8時 CST に一時的に
視程800m
天気現象
全天を覆う雲 鉛直視程 150m
10日10時 CST から
風向・風速北北西 3m/s
視程10km以上
全天の4割程度の雲 雲底高度 6100m
10日14時 CST ~ 10日15時 CST に徐々に
風向・風速東 4m/s
10日21時 CST から
風向・風速東 3m/s
視程10km以上
全天の8割程度の雲 雲底高度 6100m
TAF AMD MMMY 100251Z 1003/1106 06005KT 6SM HZ BKN018 OVC025 TX25/1021Z TN08/1010Z
BECMG 1005/1006 3SM BR HZ
TEMPO 1010/1014 1/2SM FG VV005
FM101600 34005KT P6SM SCT200
BECMG 1020/1021 08008KT
FM110300 10005KT P6SM BKN200